createdAt,value
2016-10-17T00:00:03.404Z,1007.54
2016-10-17T00:00:25.131Z,1007.34
2016-10-17T00:00:46.850Z,1007.57
2016-10-17T00:01:08.570Z,1007.50
2016-10-17T00:01:30.292Z,1007.42
2016-10-17T00:01:52.015Z,1007.46
2016-10-17T00:02:13.736Z,1007.41
2016-10-17T00:02:35.462Z,1007.59
2016-10-17T00:02:57.177Z,1007.49
2016-10-17T00:03:18.898Z,1007.51
2016-10-17T00:03:40.653Z,1007.51
2016-10-17T00:04:02.371Z,1007.47
2016-10-17T00:04:24.091Z,1007.55
2016-10-17T00:04:45.814Z,1007.49
2016-10-17T00:05:07.540Z,1007.61
2016-10-17T00:05:29.269Z,1007.52
2016-10-17T00:05:50.989Z,1007.58
2016-10-17T00:06:12.709Z,1007.50
2016-10-17T00:06:34.436Z,1007.57
2016-10-17T00:06:56.158Z,1007.50
2016-10-17T00:07:17.877Z,1007.61
2016-10-17T00:07:39.598Z,1007.56
2016-10-17T00:08:01.320Z,1007.43
2016-10-17T00:08:23.042Z,1007.53
2016-10-17T00:08:44.759Z,1007.49
2016-10-17T00:09:06.481Z,1007.53
2016-10-17T00:09:28.204Z,1007.49
2016-10-17T00:09:49.932Z,1007.49
2016-10-17T00:10:11.659Z,1007.43
2016-10-17T00:10:33.378Z,1007.36
2016-10-17T00:10:55.102Z,1007.46
2016-10-17T00:11:16.819Z,1007.59
2016-10-17T00:11:38.537Z,1007.62
2016-10-17T00:12:00.259Z,1007.48
2016-10-17T00:12:22.004Z,1007.43
2016-10-17T00:12:43.724Z,1007.34
2016-10-17T00:13:05.445Z,1007.55
2016-10-17T00:13:27.176Z,1007.60
2016-10-17T00:13:48.899Z,1007.62
2016-10-17T00:14:10.617Z,1007.57
2016-10-17T00:14:32.341Z,1007.60
2016-10-17T00:14:54.128Z,1007.39
2016-10-17T00:15:15.858Z,1007.35
2016-10-17T00:15:37.591Z,1007.42
2016-10-17T00:15:59.310Z,1007.62
2016-10-17T00:16:21.025Z,1007.61
2016-10-17T00:16:42.757Z,1007.47
2016-10-17T00:17:04.479Z,1007.55
2016-10-17T00:17:26.200Z,1007.60
2016-10-17T00:17:47.923Z,1007.48
2016-10-17T00:18:09.643Z,1007.48
2016-10-17T00:18:31.366Z,1007.41
2016-10-17T00:18:53.078Z,1007.63
2016-10-17T00:19:14.865Z,1007.65
2016-10-17T00:19:36.582Z,1007.47
2016-10-17T00:19:58.304Z,1007.65
2016-10-17T00:20:20.022Z,1007.69
2016-10-17T00:20:41.742Z,1007.41
2016-10-17T00:21:03.464Z,1007.45
2016-10-17T00:21:25.188Z,1007.44
2016-10-17T00:21:46.909Z,1007.49
2016-10-17T00:22:08.628Z,1007.53
2016-10-17T00:22:30.363Z,1007.68
2016-10-17T00:22:52.082Z,1007.54
2016-10-17T00:23:13.805Z,1007.51
2016-10-17T00:23:35.522Z,1007.50
2016-10-17T00:23:57.244Z,1007.40
2016-10-17T00:24:18.964Z,1007.58
2016-10-17T00:24:40.690Z,1007.43
2016-10-17T00:25:02.412Z,1007.37
2016-10-17T00:25:24.126Z,1007.36
2016-10-17T00:25:45.845Z,1007.48
2016-10-17T00:26:07.594Z,1007.43
2016-10-17T00:26:29.317Z,1007.40
2016-10-17T00:26:51.032Z,1007.50
2016-10-17T00:27:12.757Z,1007.41
2016-10-17T00:27:34.483Z,1007.49
2016-10-17T00:27:56.213Z,1007.44
2016-10-17T00:28:17.938Z,1007.36
2016-10-17T00:28:39.665Z,1007.52
2016-10-17T00:29:01.387Z,1007.57
2016-10-17T00:29:23.110Z,1007.50
2016-10-17T00:29:44.830Z,1007.41
2016-10-17T00:30:06.549Z,1007.59
2016-10-17T00:30:28.277Z,1007.60
2016-10-17T00:30:49.996Z,1007.59
2016-10-17T00:31:11.718Z,1007.66
2016-10-17T00:31:33.434Z,1007.71
2016-10-17T00:31:55.157Z,1007.56
2016-10-17T00:32:17.888Z,1007.43
2016-10-17T00:32:39.612Z,1007.58
2016-10-17T00:33:01.334Z,1007.58
2016-10-17T00:33:23.059Z,1007.72
2016-10-17T00:33:44.774Z,1007.66
2016-10-17T00:34:06.506Z,1007.58
2016-10-17T00:34:28.236Z,1007.52
2016-10-17T00:34:49.953Z,1007.58
2016-10-17T00:35:11.672Z,1007.67
2016-10-17T00:35:33.395Z,1007.67
2016-10-17T00:35:55.124Z,1007.47
2016-10-17T00:36:16.849Z,1007.56
2016-10-17T00:36:38.567Z,1007.60
2016-10-17T00:37:00.286Z,1007.57
2016-10-17T00:37:22.018Z,1007.64
2016-10-17T00:37:43.746Z,1007.59
2016-10-17T00:38:05.469Z,1007.51
2016-10-17T00:38:27.190Z,1007.43
2016-10-17T00:38:48.915Z,1007.40
2016-10-17T00:39:10.759Z,1007.46
2016-10-17T00:39:32.488Z,1007.56
2016-10-17T00:39:54.206Z,1007.37
2016-10-17T00:40:15.936Z,1007.44
2016-10-17T00:40:37.656Z,1007.50
2016-10-17T00:40:59.376Z,1007.63
2016-10-17T00:41:21.112Z,1007.58
2016-10-17T00:41:42.832Z,1007.56
2016-10-17T00:42:04.556Z,1007.45
2016-10-17T00:42:26.289Z,1007.54
2016-10-17T00:42:50.017Z,1007.53
2016-10-17T00:43:11.842Z,1007.59
2016-10-17T00:43:33.567Z,1007.50
2016-10-17T00:43:55.293Z,1007.58
2016-10-17T00:44:17.008Z,1007.68
2016-10-17T00:44:38.727Z,1007.66
2016-10-17T00:45:00.454Z,1007.62
2016-10-17T00:45:22.168Z,1007.47
2016-10-17T00:45:43.917Z,1007.52
2016-10-17T00:46:05.635Z,1007.53
2016-10-17T00:46:27.356Z,1007.56
2016-10-17T00:46:49.077Z,1007.71
2016-10-17T00:47:10.804Z,1007.68
2016-10-17T00:47:32.521Z,1007.55
2016-10-17T00:47:54.257Z,1007.59
2016-10-17T00:48:15.975Z,1007.51
2016-10-17T00:48:37.700Z,1007.62
2016-10-17T00:48:59.421Z,1007.61
2016-10-17T00:49:21.142Z,1007.67
2016-10-17T00:49:42.859Z,1007.67
2016-10-17T00:50:04.686Z,1007.89
2016-10-17T00:50:26.404Z,1007.74
2016-10-17T00:50:48.123Z,1007.64
2016-10-17T00:51:09.850Z,1007.84
2016-10-17T00:51:31.567Z,1007.74
2016-10-17T00:51:53.290Z,1007.69
2016-10-17T00:52:15.014Z,1007.75
2016-10-17T00:52:36.738Z,1007.61
2016-10-17T00:52:58.462Z,1007.62
2016-10-17T00:53:20.174Z,1007.67
2016-10-17T00:53:41.896Z,1007.59
2016-10-17T00:54:03.609Z,1007.64
2016-10-17T00:54:25.408Z,1007.90
2016-10-17T00:54:47.125Z,1007.74
2016-10-17T00:55:08.849Z,1007.80
2016-10-17T00:55:30.582Z,1007.72
2016-10-17T00:55:52.307Z,1007.69
2016-10-17T00:56:14.030Z,1007.80
2016-10-17T00:56:35.770Z,1007.80
2016-10-17T00:56:57.492Z,1007.92
2016-10-17T00:57:19.205Z,1007.89
2016-10-17T00:57:40.922Z,1007.80
2016-10-17T00:58:02.640Z,1007.73
2016-10-17T00:58:24.354Z,1007.61
2016-10-17T00:58:46.078Z,1007.71
2016-10-17T00:59:07.798Z,1007.82
2016-10-17T00:59:29.517Z,1007.80
2016-10-17T00:59:51.235Z,1007.81
2016-10-17T01:00:12.965Z,1007.83
2016-10-17T01:00:34.687Z,1007.75
2016-10-17T01:00:56.408Z,1007.75
2016-10-17T01:01:20.941Z,1007.77
2016-10-17T01:01:42.663Z,1007.78
2016-10-17T01:02:04.386Z,1007.73
2016-10-17T01:02:26.099Z,1007.64
2016-10-17T01:02:47.825Z,1007.75
2016-10-17T01:03:09.549Z,1007.69
2016-10-17T01:03:31.272Z,1007.77
2016-10-17T01:03:52.990Z,1007.79
2016-10-17T01:04:14.710Z,1007.69
2016-10-17T01:04:36.431Z,1007.67
2016-10-17T01:04:58.147Z,1007.73
2016-10-17T01:05:19.944Z,1007.78
2016-10-17T01:05:41.669Z,1007.76
2016-10-17T01:06:03.391Z,1007.71
2016-10-17T01:06:25.108Z,1007.78
2016-10-17T01:06:46.829Z,1007.74
2016-10-17T01:07:08.547Z,1007.69
2016-10-17T01:07:30.290Z,1007.65
2016-10-17T01:07:52.010Z,1007.67
2016-10-17T01:08:13.728Z,1007.59
2016-10-17T01:08:35.454Z,1007.61
2016-10-17T01:08:57.173Z,1007.63
2016-10-17T01:09:18.893Z,1007.73
2016-10-17T01:09:40.635Z,1007.51
2016-10-17T01:10:02.356Z,1007.59
2016-10-17T01:10:24.075Z,1007.62
2016-10-17T01:10:45.794Z,1007.67
2016-10-17T01:11:07.518Z,1007.83
2016-10-17T01:11:29.239Z,1007.83
2016-10-17T01:11:50.950Z,1007.78
2016-10-17T01:12:12.676Z,1007.70
2016-10-17T01:12:34.400Z,1007.65
2016-10-17T01:12:56.118Z,1007.68
2016-10-17T01:13:17.835Z,1007.74
2016-10-17T01:13:39.556Z,1007.70
2016-10-17T01:14:01.281Z,1007.75
2016-10-17T01:14:23.001Z,1007.76
2016-10-17T01:14:44.721Z,1007.82
2016-10-17T01:15:06.443Z,1007.82
2016-10-17T01:15:28.163Z,1007.70
2016-10-17T01:15:49.889Z,1007.78
2016-10-17T01:16:11.616Z,1007.60
2016-10-17T01:16:33.330Z,1007.51
2016-10-17T01:16:55.047Z,1007.50
2016-10-17T01:17:16.772Z,1007.56
2016-10-17T01:17:38.489Z,1007.47
2016-10-17T01:18:00.220Z,1007.49
2016-10-17T01:18:21.945Z,1007.59
2016-10-17T01:18:43.670Z,1007.62
2016-10-17T01:19:05.388Z,1007.62
2016-10-17T01:19:27.107Z,1007.60
2016-10-17T01:19:48.831Z,1007.78
2016-10-17T01:20:10.544Z,1007.84
2016-10-17T01:20:32.258Z,1007.78
2016-10-17T01:20:53.998Z,1007.69
2016-10-17T01:21:15.721Z,1007.67
2016-10-17T01:21:37.430Z,1007.56
2016-10-17T01:21:59.152Z,1007.59
2016-10-17T01:22:20.871Z,1007.49
2016-10-17T01:22:42.607Z,1007.54
2016-10-17T01:23:04.347Z,1007.66
2016-10-17T01:23:26.067Z,1007.70
2016-10-17T01:23:47.776Z,1007.61
2016-10-17T01:24:09.495Z,1007.66
2016-10-17T01:24:31.217Z,1007.69
2016-10-17T01:24:52.940Z,1007.73
2016-10-17T01:25:14.661Z,1007.56
2016-10-17T01:25:36.377Z,1007.66
2016-10-17T01:25:58.100Z,1007.68
2016-10-17T01:26:19.818Z,1007.75
2016-10-17T01:26:41.538Z,1007.64
2016-10-17T01:27:03.262Z,1007.64
2016-10-17T01:27:24.980Z,1007.69
2016-10-17T01:27:46.696Z,1007.67
2016-10-17T01:28:08.420Z,1007.62
2016-10-17T01:28:30.131Z,1007.59
2016-10-17T01:28:51.843Z,1007.54
2016-10-17T01:29:13.560Z,1007.55
2016-10-17T01:29:35.282Z,1007.29
2016-10-17T01:29:57.065Z,1007.42
2016-10-17T01:30:18.787Z,1007.45
2016-10-17T01:30:40.508Z,1007.46
2016-10-17T01:31:02.224Z,1007.52
2016-10-17T01:31:23.948Z,1007.54
2016-10-17T01:31:45.665Z,1007.50
2016-10-17T01:32:07.385Z,1007.56
2016-10-17T01:32:29.100Z,1007.56
2016-10-17T01:32:50.816Z,1007.60
2016-10-17T01:33:12.533Z,1007.72
2016-10-17T01:33:34.255Z,1007.75
2016-10-17T01:33:55.973Z,1007.76
2016-10-17T01:34:17.704Z,1007.74
2016-10-17T01:34:39.425Z,1007.66
2016-10-17T01:35:01.139Z,1007.61
2016-10-17T01:35:22.868Z,1007.66
2016-10-17T01:35:44.599Z,1007.67
2016-10-17T01:36:06.318Z,1007.69
2016-10-17T01:36:28.054Z,1007.62
2016-10-17T01:36:49.773Z,1007.40
2016-10-17T01:37:11.494Z,1007.62
2016-10-17T01:37:37.984Z,1007.58
2016-10-17T01:37:59.728Z,1007.60
2016-10-17T01:38:21.452Z,1007.56
2016-10-17T01:38:43.172Z,1007.63
2016-10-17T01:39:04.889Z,1007.54
2016-10-17T01:39:26.606Z,1007.55
2016-10-17T01:39:48.323Z,1007.53
2016-10-17T01:40:10.133Z,1007.65
2016-10-17T01:40:31.853Z,1007.55
2016-10-17T01:40:53.573Z,1007.60
2016-10-17T01:41:15.287Z,1007.63
2016-10-17T01:41:37.004Z,1007.80
2016-10-17T01:41:58.725Z,1007.73
2016-10-17T01:42:20.445Z,1007.67
2016-10-17T01:42:42.166Z,1007.65
2016-10-17T01:43:03.886Z,1007.64
2016-10-17T01:43:25.609Z,1007.67
2016-10-17T01:43:47.336Z,1007.66
2016-10-17T01:44:09.059Z,1007.67
2016-10-17T01:44:30.776Z,1007.67
2016-10-17T01:44:52.496Z,1007.64
2016-10-17T01:45:14.213Z,1007.59
2016-10-17T01:45:35.934Z,1007.63
2016-10-17T01:45:57.653Z,1007.76
2016-10-17T01:46:19.376Z,1007.63
2016-10-17T01:46:41.098Z,1007.57
2016-10-17T01:47:02.823Z,1007.70
2016-10-17T01:47:24.545Z,1007.71
2016-10-17T01:47:46.261Z,1007.64
2016-10-17T01:48:07.984Z,1007.69
2016-10-17T01:48:29.729Z,1007.60
2016-10-17T01:48:51.444Z,1007.60
2016-10-17T01:49:13.188Z,1007.47
2016-10-17T01:49:34.911Z,1007.51
2016-10-17T01:49:56.630Z,1007.53
2016-10-17T01:50:18.355Z,1007.52
2016-10-17T01:50:40.068Z,1007.37
2016-10-17T01:51:01.790Z,1007.58
2016-10-17T01:51:23.507Z,1007.55
2016-10-17T01:51:45.235Z,1007.58
2016-10-17T01:52:06.960Z,1007.50
2016-10-17T01:52:28.677Z,1007.62
2016-10-17T01:52:50.394Z,1007.52
2016-10-17T01:53:12.126Z,1007.47
2016-10-17T01:53:33.854Z,1007.50
2016-10-17T01:53:55.772Z,1007.69
2016-10-17T01:54:17.499Z,1007.54
2016-10-17T01:54:39.211Z,1007.57
2016-10-17T01:55:00.925Z,1007.66
2016-10-17T01:55:22.646Z,1007.69
2016-10-17T01:55:44.363Z,1007.67
2016-10-17T01:56:06.085Z,1007.61
2016-10-17T01:56:27.805Z,1007.54
2016-10-17T01:56:49.522Z,1007.63
2016-10-17T01:57:11.239Z,1007.57
2016-10-17T01:57:32.957Z,1007.54
2016-10-17T01:57:54.717Z,1007.51
2016-10-17T01:58:16.418Z,1007.60
2016-10-17T01:58:38.140Z,1007.55
2016-10-17T01:58:59.858Z,1007.49
2016-10-17T01:59:21.589Z,1007.57
2016-10-17T01:59:43.311Z,1007.50
2016-10-17T02:00:05.036Z,1007.43
2016-10-17T02:00:26.808Z,1007.48
2016-10-17T02:00:48.535Z,1007.67
2016-10-17T02:01:10.253Z,1007.52
2016-10-17T02:01:31.971Z,1007.56
2016-10-17T02:01:53.688Z,1007.69
2016-10-17T02:02:15.409Z,1007.55
2016-10-17T02:02:37.134Z,1007.51
2016-10-17T02:02:58.855Z,1007.37
2016-10-17T02:03:20.588Z,1007.48
2016-10-17T02:03:42.310Z,1007.55
2016-10-17T02:04:04.037Z,1007.45
2016-10-17T02:04:25.756Z,1007.56
2016-10-17T02:04:47.610Z,1007.53
2016-10-17T02:05:09.323Z,1007.58
2016-10-17T02:05:31.039Z,1007.64
2016-10-17T02:05:52.764Z,1007.73
2016-10-17T02:06:14.481Z,1007.69
2016-10-17T02:06:36.197Z,1007.62
2016-10-17T02:06:57.909Z,1007.53
2016-10-17T02:07:19.640Z,1007.60
2016-10-17T02:07:41.361Z,1007.58
2016-10-17T02:08:03.082Z,1007.55
2016-10-17T02:08:24.807Z,1007.51
2016-10-17T02:08:46.526Z,1007.54
2016-10-17T02:09:08.242Z,1007.55
2016-10-17T02:09:29.956Z,1007.52
2016-10-17T02:09:51.681Z,1007.54
2016-10-17T02:10:13.407Z,1007.49
2016-10-17T02:10:35.127Z,1007.40
2016-10-17T02:10:56.847Z,1007.34
2016-10-17T02:11:18.559Z,1007.39
2016-10-17T02:11:40.282Z,1007.49
2016-10-17T02:12:01.995Z,1007.48
2016-10-17T02:12:23.719Z,1007.46
2016-10-17T02:12:45.432Z,1007.50
2016-10-17T02:13:07.154Z,1007.46
2016-10-17T02:13:28.879Z,1007.49
2016-10-17T02:13:50.595Z,1007.58
2016-10-17T02:14:12.317Z,1007.49
2016-10-17T02:14:34.032Z,1007.47
2016-10-17T02:14:55.758Z,1007.48
2016-10-17T02:15:17.483Z,1007.49
2016-10-17T02:15:39.219Z,1007.51
2016-10-17T02:16:00.935Z,1007.55
2016-10-17T02:16:22.656Z,1007.55
2016-10-17T02:16:44.376Z,1007.52
2016-10-17T02:17:06.099Z,1007.45
2016-10-17T02:17:27.818Z,1007.27
2016-10-17T02:17:49.536Z,1007.46
2016-10-17T02:18:11.254Z,1007.51
2016-10-17T02:18:32.971Z,1007.55
2016-10-17T02:18:54.705Z,1007.53
2016-10-17T02:19:16.428Z,1007.51
2016-10-17T02:19:38.145Z,1007.51
2016-10-17T02:19:59.857Z,1007.60
2016-10-17T02:20:21.571Z,1007.51
2016-10-17T02:20:43.288Z,1007.45
2016-10-17T02:21:05.007Z,1007.47
2016-10-17T02:21:26.720Z,1007.50
2016-10-17T02:21:48.442Z,1007.44
2016-10-17T02:22:10.168Z,1007.49
2016-10-17T02:22:31.885Z,1007.48
2016-10-17T02:22:53.603Z,1007.46
2016-10-17T02:23:15.345Z,1007.57
2016-10-17T02:23:37.062Z,1007.44
2016-10-17T02:23:58.796Z,1007.50
2016-10-17T02:24:20.518Z,1007.42
2016-10-17T02:24:42.239Z,1007.26
2016-10-17T02:25:04.086Z,1007.30
2016-10-17T02:25:25.801Z,1007.13
2016-10-17T02:25:47.534Z,1007.26
2016-10-17T02:26:09.254Z,1007.28
2016-10-17T02:26:30.973Z,1007.36
2016-10-17T02:26:52.690Z,1007.41
2016-10-17T02:27:14.423Z,1007.35
2016-10-17T02:27:36.147Z,1007.30
2016-10-17T02:27:57.861Z,1007.44
2016-10-17T02:28:19.574Z,1007.38
2016-10-17T02:28:41.304Z,1007.40
2016-10-17T02:29:03.024Z,1007.35
2016-10-17T02:29:24.916Z,1007.35
2016-10-17T02:29:46.506Z,1007.24
2016-10-17T02:30:08.224Z,1007.25
2016-10-17T02:30:29.945Z,1007.20
2016-10-17T02:30:51.660Z,1007.13
2016-10-17T02:31:13.384Z,1007.24
2016-10-17T02:31:35.097Z,1007.27
2016-10-17T02:31:56.814Z,1007.31
2016-10-17T02:32:18.537Z,1007.19
2016-10-17T02:32:40.257Z,1007.43
2016-10-17T02:33:01.985Z,1007.29
2016-10-17T02:33:23.704Z,1007.23
2016-10-17T02:33:45.424Z,1007.26
2016-10-17T02:34:07.155Z,1007.31
2016-10-17T02:34:28.870Z,1007.29
2016-10-17T02:34:50.595Z,1007.16
2016-10-17T02:35:12.323Z,1007.32
2016-10-17T02:35:34.046Z,1007.38
2016-10-17T02:35:55.763Z,1007.41
2016-10-17T02:36:17.504Z,1007.36
2016-10-17T02:36:39.230Z,1007.39
2016-10-17T02:37:00.956Z,1007.33
2016-10-17T02:37:22.677Z,1007.29
2016-10-17T02:37:44.401Z,1007.13
2016-10-17T02:38:06.124Z,1007.11
2016-10-17T02:38:27.872Z,1007.25
2016-10-17T02:38:49.593Z,1007.13
2016-10-17T02:39:11.315Z,1007.08
2016-10-17T02:39:33.038Z,1007.19
2016-10-17T02:39:54.761Z,1007.23
2016-10-17T02:40:16.479Z,1007.31
2016-10-17T02:40:38.209Z,1007.29
2016-10-17T02:40:59.931Z,1007.27
2016-10-17T02:41:21.651Z,1007.29
2016-10-17T02:41:43.368Z,1007.17
2016-10-17T02:42:05.085Z,1007.32
2016-10-17T02:42:26.799Z,1007.37
2016-10-17T02:42:48.523Z,1007.42
2016-10-17T02:43:15.016Z,1007.64
2016-10-17T02:43:36.734Z,1007.56
2016-10-17T02:43:58.456Z,1007.43
2016-10-17T02:44:20.171Z,1007.40
2016-10-17T02:44:41.896Z,1007.39
2016-10-17T02:45:03.623Z,1007.33
2016-10-17T02:45:25.353Z,1007.07
2016-10-17T02:45:47.082Z,1007.04
2016-10-17T02:46:08.798Z,1007.05
2016-10-17T02:46:30.522Z,1007.15
2016-10-17T02:46:52.242Z,1007.18
2016-10-17T02:47:13.968Z,1007.21
2016-10-17T02:47:35.682Z,1007.16
2016-10-17T02:47:57.399Z,1007.37
2016-10-17T02:48:19.134Z,1007.28
2016-10-17T02:48:40.867Z,1007.40
2016-10-17T02:49:02.588Z,1007.40
2016-10-17T02:49:24.302Z,1007.29
2016-10-17T02:49:46.018Z,1007.50
2016-10-17T02:50:07.745Z,1007.48
2016-10-17T02:50:29.475Z,1007.50
2016-10-17T02:50:51.199Z,1007.58
2016-10-17T02:51:12.918Z,1007.51
2016-10-17T02:51:34.638Z,1007.30
2016-10-17T02:51:56.358Z,1007.41
2016-10-17T02:52:18.078Z,1007.41
2016-10-17T02:52:39.807Z,1007.42
2016-10-17T02:53:01.525Z,1007.54
2016-10-17T02:53:23.248Z,1007.59
2016-10-17T02:53:44.971Z,1007.48
2016-10-17T02:54:06.689Z,1007.50
2016-10-17T02:54:28.409Z,1007.46
2016-10-17T02:54:50.127Z,1007.45
2016-10-17T02:55:11.864Z,1007.43
2016-10-17T02:55:33.714Z,1007.45
2016-10-17T02:55:55.428Z,1007.43
2016-10-17T02:56:17.154Z,1007.48
2016-10-17T02:56:38.884Z,1007.49
2016-10-17T02:57:00.602Z,1007.45
2016-10-17T02:57:22.336Z,1007.50
2016-10-17T02:57:44.058Z,1007.74
2016-10-17T02:58:05.791Z,1007.65
2016-10-17T02:58:27.512Z,1007.62
2016-10-17T02:58:49.235Z,1007.67
2016-10-17T02:59:10.958Z,1007.65
2016-10-17T02:59:32.676Z,1007.56
2016-10-17T02:59:54.520Z,1007.57
2016-10-17T03:00:16.173Z,1007.58
2016-10-17T03:00:37.898Z,1007.56
2016-10-17T03:00:59.616Z,1007.56
2016-10-17T03:01:21.355Z,1007.44
2016-10-17T03:01:43.073Z,1007.50
2016-10-17T03:02:04.795Z,1007.33
2016-10-17T03:02:26.516Z,1007.44
2016-10-17T03:02:48.240Z,1007.55
2016-10-17T03:03:09.959Z,1007.57
2016-10-17T03:03:31.685Z,1007.53
2016-10-17T03:03:53.400Z,1007.43
2016-10-17T03:04:15.125Z,1007.51
2016-10-17T03:04:36.846Z,1007.54
2016-10-17T03:04:58.567Z,1007.49
2016-10-17T03:05:20.285Z,1007.51
2016-10-17T03:05:42.006Z,1007.48
2016-10-17T03:06:03.730Z,1007.52
2016-10-17T03:06:25.453Z,1007.55
2016-10-17T03:06:47.193Z,1007.55
2016-10-17T03:07:08.911Z,1007.64
2016-10-17T03:07:30.637Z,1007.56
2016-10-17T03:07:52.357Z,1007.71
2016-10-17T03:08:14.071Z,1007.58
2016-10-17T03:08:35.793Z,1007.86
2016-10-17T03:08:57.509Z,1007.95
2016-10-17T03:09:19.230Z,1007.86
2016-10-17T03:09:40.948Z,1007.85
2016-10-17T03:10:02.660Z,1007.76
2016-10-17T03:10:24.383Z,1007.69
2016-10-17T03:10:46.103Z,1007.78
2016-10-17T03:11:07.846Z,1007.81
2016-10-17T03:11:29.569Z,1007.76
2016-10-17T03:11:51.288Z,1007.72
2016-10-17T03:12:13.010Z,1007.70
2016-10-17T03:12:34.735Z,1007.63
2016-10-17T03:12:56.447Z,1007.66
2016-10-17T03:13:18.185Z,1007.52
2016-10-17T03:13:39.901Z,1007.50
2016-10-17T03:14:04.587Z,1007.38
2016-10-17T03:14:26.307Z,1007.53
2016-10-17T03:14:48.026Z,1007.62
2016-10-17T03:15:09.845Z,1007.54
2016-10-17T03:15:31.567Z,1007.55
2016-10-17T03:15:53.291Z,1007.54
2016-10-17T03:16:15.011Z,1007.79
2016-10-17T03:16:36.730Z,1007.73
2016-10-17T03:16:58.449Z,1007.67
2016-10-17T03:17:20.169Z,1007.61
2016-10-17T03:17:41.892Z,1007.68
2016-10-17T03:18:03.613Z,1007.65
2016-10-17T03:18:25.325Z,1007.80
2016-10-17T03:18:47.040Z,1007.71
2016-10-17T03:19:08.765Z,1007.62
2016-10-17T03:19:30.505Z,1007.69
2016-10-17T03:19:52.226Z,1007.82
2016-10-17T03:20:13.946Z,1007.94
2016-10-17T03:20:35.667Z,1007.94
2016-10-17T03:20:57.396Z,1007.88
2016-10-17T03:21:19.119Z,1007.85
2016-10-17T03:21:40.846Z,1007.78
2016-10-17T03:22:02.563Z,1007.74
2016-10-17T03:22:24.280Z,1007.69
2016-10-17T03:22:45.997Z,1007.60
2016-10-17T03:23:07.717Z,1007.63
2016-10-17T03:23:29.437Z,1007.56
2016-10-17T03:23:51.156Z,1007.53
2016-10-17T03:24:12.895Z,1007.82
2016-10-17T03:24:34.610Z,1007.87
2016-10-17T03:24:56.330Z,1007.94
2016-10-17T03:25:18.047Z,1007.79
2016-10-17T03:25:39.764Z,1007.81
2016-10-17T03:26:01.491Z,1007.76
2016-10-17T03:26:23.212Z,1007.67
2016-10-17T03:26:44.937Z,1007.59
2016-10-17T03:27:06.659Z,1007.76
2016-10-17T03:27:28.379Z,1007.85
2016-10-17T03:27:50.098Z,1007.83
2016-10-17T03:28:11.822Z,1007.77
2016-10-17T03:28:33.547Z,1007.79
2016-10-17T03:28:55.267Z,1007.80
2016-10-17T03:29:16.981Z,1007.77
2016-10-17T03:29:38.703Z,1007.76
2016-10-17T03:30:00.421Z,1007.78
2016-10-17T03:30:22.144Z,1007.81
2016-10-17T03:30:43.874Z,1007.71
2016-10-17T03:31:05.590Z,1007.79
2016-10-17T03:31:27.311Z,1007.81
2016-10-17T03:31:49.030Z,1007.81
2016-10-17T03:32:10.764Z,1007.85
2016-10-17T03:32:32.482Z,1007.81
2016-10-17T03:32:54.202Z,1007.79
2016-10-17T03:33:15.921Z,1007.70
2016-10-17T03:33:37.644Z,1007.70
2016-10-17T03:33:59.362Z,1007.76
2016-10-17T03:34:21.079Z,1007.74
2016-10-17T03:34:42.803Z,1007.75
2016-10-17T03:35:04.537Z,1007.82
2016-10-17T03:35:26.259Z,1007.83
2016-10-17T03:35:47.972Z,1007.78
2016-10-17T03:36:09.692Z,1007.80
2016-10-17T03:36:31.412Z,1007.80
2016-10-17T03:36:53.138Z,1007.87
2016-10-17T03:37:14.862Z,1007.84
2016-10-17T03:37:36.590Z,1007.85
2016-10-17T03:37:58.324Z,1007.81
2016-10-17T03:38:20.044Z,1007.76
2016-10-17T03:38:41.769Z,1007.72
2016-10-17T03:39:03.483Z,1007.61
2016-10-17T03:39:25.205Z,1007.65
2016-10-17T03:39:47.061Z,1007.69
2016-10-17T03:40:08.707Z,1007.80
2016-10-17T03:40:30.438Z,1007.83
2016-10-17T03:40:52.154Z,1007.79
2016-10-17T03:41:13.874Z,1007.69
2016-10-17T03:41:35.599Z,1007.71
2016-10-17T03:41:57.329Z,1007.65
2016-10-17T03:42:19.052Z,1007.49
2016-10-17T03:42:40.796Z,1007.58
2016-10-17T03:43:02.511Z,1007.56
2016-10-17T03:43:24.232Z,1007.59
2016-10-17T03:43:45.955Z,1007.77
2016-10-17T03:44:07.684Z,1007.75
2016-10-17T03:44:29.400Z,1007.62
2016-10-17T03:44:51.128Z,1007.58
2016-10-17T03:45:12.863Z,1007.64
2016-10-17T03:45:34.581Z,1007.77
2016-10-17T03:45:56.307Z,1007.76
2016-10-17T03:46:18.030Z,1007.72
2016-10-17T03:46:39.751Z,1007.64
2016-10-17T03:47:01.470Z,1007.52
2016-10-17T03:47:23.191Z,1007.53
2016-10-17T03:47:44.913Z,1007.72
2016-10-17T03:48:06.629Z,1007.71
2016-10-17T03:48:28.362Z,1007.71
2016-10-17T03:48:50.086Z,1007.76
2016-10-17T03:49:11.806Z,1007.68
2016-10-17T03:49:33.526Z,1007.57
2016-10-17T03:49:55.244Z,1007.59
2016-10-17T03:50:16.970Z,1007.56
2016-10-17T03:50:38.691Z,1007.53
2016-10-17T03:51:00.413Z,1007.46
2016-10-17T03:51:22.136Z,1007.51
2016-10-17T03:51:43.863Z,1007.80
2016-10-17T03:52:05.587Z,1007.82
2016-10-17T03:52:27.313Z,1007.74
2016-10-17T03:52:49.032Z,1007.65
2016-10-17T03:53:10.750Z,1007.68
2016-10-17T03:53:32.483Z,1007.62
2016-10-17T03:53:54.204Z,1007.60
2016-10-17T03:54:15.930Z,1007.62
2016-10-17T03:54:37.642Z,1007.60
2016-10-17T03:54:59.371Z,1007.52
2016-10-17T03:55:21.088Z,1007.56
2016-10-17T03:55:42.828Z,1007.61
2016-10-17T03:56:04.544Z,1007.47
2016-10-17T03:56:26.288Z,1007.43
2016-10-17T03:56:48.003Z,1007.56
2016-10-17T03:57:09.720Z,1007.62
2016-10-17T03:57:31.435Z,1007.63
2016-10-17T03:57:53.180Z,1007.65
2016-10-17T03:58:14.908Z,1007.66
2016-10-17T03:58:36.630Z,1007.56
2016-10-17T03:58:58.356Z,1007.61
2016-10-17T03:59:20.077Z,1007.72
2016-10-17T03:59:41.817Z,1007.73
2016-10-17T04:00:03.543Z,1007.77
2016-10-17T04:00:25.269Z,1007.77
2016-10-17T04:00:47.001Z,1007.74
2016-10-17T04:01:08.714Z,1007.79
2016-10-17T04:01:30.432Z,1007.74
2016-10-17T04:01:52.152Z,1007.51
2016-10-17T04:02:13.875Z,1007.79
2016-10-17T04:02:35.595Z,1007.80
2016-10-17T04:02:57.319Z,1007.70
2016-10-17T04:03:19.037Z,1007.78
2016-10-17T04:03:40.762Z,1007.67
2016-10-17T04:04:02.491Z,1007.52
2016-10-17T04:04:24.222Z,1007.61
2016-10-17T04:04:45.988Z,1007.58
2016-10-17T04:05:07.709Z,1007.63
2016-10-17T04:05:29.429Z,1007.61
2016-10-17T04:05:51.147Z,1007.65
2016-10-17T04:06:12.868Z,1007.66
2016-10-17T04:06:34.592Z,1007.61
2016-10-17T04:06:56.308Z,1007.57
2016-10-17T04:07:18.037Z,1007.61
2016-10-17T04:07:39.756Z,1007.67
2016-10-17T04:08:01.484Z,1007.59
2016-10-17T04:08:23.208Z,1007.60
2016-10-17T04:08:44.930Z,1007.43
2016-10-17T04:09:06.756Z,1007.45
2016-10-17T04:09:28.486Z,1007.48
2016-10-17T04:09:50.216Z,1007.38
2016-10-17T04:10:11.941Z,1007.41
2016-10-17T04:10:33.662Z,1007.52
2016-10-17T04:10:55.383Z,1007.71
2016-10-17T04:11:17.108Z,1007.69
2016-10-17T04:11:38.828Z,1007.68
2016-10-17T04:12:00.553Z,1007.63
2016-10-17T04:12:22.275Z,1007.60
2016-10-17T04:12:43.996Z,1007.60
2016-10-17T04:13:05.716Z,1007.57
2016-10-17T04:13:27.442Z,1007.61
2016-10-17T04:13:49.166Z,1007.56
2016-10-17T04:14:10.890Z,1007.56
2016-10-17T04:14:32.607Z,1007.58
2016-10-17T04:14:54.333Z,1007.59
2016-10-17T04:15:16.061Z,1007.41
2016-10-17T04:15:37.785Z,1007.61
2016-10-17T04:15:59.512Z,1007.60
2016-10-17T04:16:21.233Z,1007.42
2016-10-17T04:16:42.965Z,1007.52
2016-10-17T04:17:04.688Z,1007.54
2016-10-17T04:17:26.412Z,1007.53
2016-10-17T04:17:48.138Z,1007.56
2016-10-17T04:18:09.858Z,1007.67
2016-10-17T04:18:31.582Z,1007.88
2016-10-17T04:18:53.304Z,1007.85
2016-10-17T04:19:15.023Z,1007.87
2016-10-17T04:19:36.754Z,1007.76
2016-10-17T04:19:58.472Z,1007.65
2016-10-17T04:20:20.195Z,1007.70
2016-10-17T04:20:41.914Z,1007.73
2016-10-17T04:21:03.658Z,1007.77
2016-10-17T04:21:25.368Z,1007.71
2016-10-17T04:21:47.090Z,1007.74
2016-10-17T04:22:08.806Z,1007.73
2016-10-17T04:22:30.527Z,1007.73
2016-10-17T04:23:23.512Z,1007.74